Detall de PIREP

Printer-friendly versionPDF version

[2013/04/19 08:35:00]
Flight IATA:CT0001
Pilot Number:042
Company ICAO:CAT
Aircraft Type:C750/F
PAX:3
Departing Airport: LEAL
Destination Airport: LEGE
Alternate Airport:LEBL
Online: VATSIM
Route:SOPET B28 EBROX W111 VNV N861 LATRO H110 MAMUK
Flight Level:F240
No Slew and time accel
No pause
Crash detect
Detect pilot in Cockpit between each 30 and 45 minutes
08:35 Zero fuel Weight: 22921 Lbs, Fuel Weight: 12974 Lbs
08:35 VATSIM:LEAL 190800Z VRB01KT 9999 FEW006 19/13 Q1020 NOSIG
08:35 VATSIM:LEGE 190800Z VRB01KT 9999 FEW040 15/12 Q1020
08:36 VOICE CATALONIAN
08:46 Parking Brakes off
08:51 Take-off
08:51 Take off Weight: 35727 Lbs
08:51 Wind: 190º @ 004 Knots Heading: 102º
08:51 POS N38º 16´ 52´´ W000º 33´ 08´´
08:51 Gear Up: 155 Knots
08:51 Flaps:4 at 155 Knots
08:51 Flaps:3 at 158 Knots
08:52 Flaps:2 at 185 Knots
08:59 TOC
08:59 Fuel Weight: 12364 Lb
08:59 TOD
08:59 Fuel Weight: 12364 Lb
09:00 TOC
09:00 Fuel Weight: 12357 Lb
09:06 Wind:315º@012 Knots Heading: 352º Ground Speed: 450 Knots Altitude 24199 ft
09:21 Wind:311º@051 Knots Heading: 029º Ground Speed: 467 Knots Altitude 24225 ft
09:24 TOD
09:24 Fuel Weight: 11480 Lb
09:36 Wind:006º@006 Knots Heading: 069º Ground Speed: 226 Knots Altitude 5928 ft
09:45 Flaps:3 at 184 Knots
09:45 Flaps:4 at 169 Knots
09:46 Gear Down: 150 Knots
09:50 TouchDown:Rate -120 ft/min Speed: 126 Knots
09:50 VATSIM:LEGE 190930Z 08003KT 010V140 9999 FEW045 BKN090 18/11 Q1020
09:50 Land
09:50 Wind:200º@009 Knots
09:50 Heading: 199º
09:50 Flight Duration: 00:59
09:50 Landing Weight: 34088 Lbs
09:50 POS N41º 53´ 58´´ E002º 45´ 36´´
09:54 Parking brakes on
09:54 Block to Block Duration: 01:08
09:54 Final Fuel: 11128 Lbls
09:54 Spent Fuel: 1845 Lbls
09:54 Flight Length: 339 NM
09:54 TOD Land Length: 107 NM

Exportar CSV

Powered by Drupal - Modified by Danger4k